N3368K KCLT-KMFD
Flight info
| Callsign | N3368K |
|---|---|
| Flight time | 2h 19m |
| Altitude | 8000 |
| Route | WEAZL5 CLAWD STOVE V133 HVQ Q147 BOBCT |
| Aircraft | DA62/L-SDFGRY/C |
Departure
| Time | 2026-04-17 13:27 |
|---|---|
| Airport | Charlotte Douglas International Airport (KCLT) |
Arrival
| Time | 2026-04-17 15:46 |
|---|---|
| Airport | Mansfield Lahm Regional Airport (KMFD) |
| Time | Latitude | Longitude | Altitude | Speed | Heading |
|---|---|---|---|---|---|
| 2026-04-17 13:11 | 35.21047 | -80.93273 | 713 ft | 0 kts | 268° |
| 2026-04-17 13:19 | 35.21047 | -80.93255 | 713 ft | 2 kts | 268° |
| 2026-04-17 13:20 | 35.21047 | -80.93235 | 713 ft | 2 kts | 290° |
| 2026-04-17 13:20 | 35.21046 | -80.93232 | 713 ft | 0 kts | 326° |
| 2026-04-17 13:22 | 35.21046 | -80.93233 | 713 ft | 2 kts | 330° |
| 2026-04-17 13:22 | 35.21096 | -80.93237 | 715 ft | 11 kts | 356° |
| 2026-04-17 13:22 | 35.21119 | -80.93312 | 713 ft | 15 kts | 263° |
| 2026-04-17 13:23 | 35.21055 | -80.93363 | 715 ft | 16 kts | 176° |
| 2026-04-17 13:23 | 35.20918 | -80.93347 | 711 ft | 21 kts | 174° |
| 2026-04-17 13:23 | 35.20785 | -80.93335 | 711 ft | 18 kts | 176° |
| 2026-04-17 13:23 | 35.20670 | -80.93324 | 710 ft | 16 kts | 173° |
| 2026-04-17 13:24 | 35.20567 | -80.93291 | 710 ft | 15 kts | 163° |
| 2026-04-17 13:24 | 35.20470 | -80.93263 | 706 ft | 14 kts | 169° |
| 2026-04-17 13:24 | 35.20375 | -80.93242 | 707 ft | 15 kts | 169° |
| 2026-04-17 13:24 | 35.20253 | -80.93226 | 706 ft | 20 kts | 176° |
| 2026-04-17 13:25 | 35.20128 | -80.93235 | 705 ft | 13 kts | 224° |
| 2026-04-17 13:25 | 35.20113 | -80.93280 | 703 ft | 0 kts | 268° |
| 2026-04-17 13:25 | 35.20113 | -80.93282 | 703 ft | 3 kts | 269° |
| 2026-04-17 13:26 | 35.20113 | -80.93382 | 704 ft | 14 kts | 286° |
| 2026-04-17 13:26 | 35.20144 | -80.93417 | 704 ft | 0 kts | 352° |
| 2026-04-17 13:26 | 35.20155 | -80.93418 | 702 ft | 13 kts | 354° |
| 2026-04-17 13:26 | 35.20463 | -80.93444 | 707 ft | 71 kts | 356° |
| 2026-04-17 13:27 | 35.21077 | -80.93509 | 752 ft | 102 kts | 355° |
| 2026-04-17 13:27 | 35.21852 | -80.93633 | 893 ft | 119 kts | 352° |
| 2026-04-17 13:27 | 35.22703 | -80.93776 | 1148 ft | 123 kts | 352° |
| 2026-04-17 13:27 | 35.23541 | -80.93909 | 1476 ft | 121 kts | 351° |
| 2026-04-17 13:28 | 35.24341 | -80.94146 | 1812 ft | 116 kts | 336° |
| 2026-04-17 13:28 | 35.25096 | -80.94517 | 2165 ft | 117 kts | 340° |
| 2026-04-17 13:28 | 35.25863 | -80.94859 | 2458 ft | 116 kts | 339° |
| 2026-04-17 13:28 | 35.26613 | -80.95188 | 2756 ft | 115 kts | 340° |
| 2026-04-17 13:29 | 35.27359 | -80.95511 | 3057 ft | 114 kts | 341° |
| 2026-04-17 13:29 | 35.28107 | -80.95831 | 3388 ft | 113 kts | 342° |
| 2026-04-17 13:29 | 35.28860 | -80.96158 | 3716 ft | 116 kts | 340° |
| 2026-04-17 13:29 | 35.29621 | -80.96484 | 4095 ft | 117 kts | 340° |
| 2026-04-17 13:30 | 35.30388 | -80.96813 | 4447 ft | 117 kts | 341° |
| 2026-04-17 13:30 | 35.31160 | -80.97144 | 4728 ft | 119 kts | 341° |
| 2026-04-17 13:30 | 35.31942 | -80.97480 | 5025 ft | 119 kts | 341° |
| 2026-04-17 13:30 | 35.32729 | -80.97818 | 5358 ft | 121 kts | 340° |
| 2026-04-17 13:31 | 35.33529 | -80.98160 | 5662 ft | 122 kts | 340° |
| 2026-04-17 13:31 | 35.34334 | -80.98506 | 5965 ft | 123 kts | 340° |
| 2026-04-17 13:31 | 35.35149 | -80.98856 | 6269 ft | 125 kts | 340° |
| 2026-04-17 13:31 | 35.35970 | -80.99208 | 6585 ft | 125 kts | 339° |
| 2026-04-17 13:32 | 35.36797 | -80.99564 | 6872 ft | 126 kts | 339° |
| 2026-04-17 13:32 | 35.37628 | -80.99920 | 7222 ft | 127 kts | 339° |
| 2026-04-17 13:32 | 35.38463 | -81.00280 | 7539 ft | 128 kts | 338° |
| 2026-04-17 13:32 | 35.39297 | -81.00638 | 7863 ft | 129 kts | 338° |
| 2026-04-17 13:33 | 35.40165 | -81.01012 | 8014 ft | 142 kts | 338° |
| 2026-04-17 13:33 | 35.41164 | -81.01443 | 8019 ft | 160 kts | 338° |
| 2026-04-17 13:33 | 35.42249 | -81.01908 | 8018 ft | 169 kts | 338° |
| 2026-04-17 13:33 | 35.43375 | -81.02392 | 8020 ft | 174 kts | 338° |
| 2026-04-17 13:34 | 35.44529 | -81.02888 | 8020 ft | 177 kts | 338° |
| 2026-04-17 13:34 | 35.45696 | -81.03390 | 8020 ft | 179 kts | 338° |
| 2026-04-17 13:34 | 35.46870 | -81.03896 | 8022 ft | 179 kts | 338° |
| 2026-04-17 13:34 | 35.48044 | -81.04401 | 8022 ft | 179 kts | 338° |
| 2026-04-17 13:35 | 35.49217 | -81.04907 | 8022 ft | 179 kts | 338° |
| 2026-04-17 13:35 | 35.50393 | -81.05414 | 8027 ft | 179 kts | 339° |
| 2026-04-17 13:35 | 35.51570 | -81.05921 | 8023 ft | 179 kts | 339° |
| 2026-04-17 13:35 | 35.52751 | -81.06431 | 8024 ft | 180 kts | 338° |
| 2026-04-17 13:36 | 35.53932 | -81.06940 | 8019 ft | 180 kts | 338° |
| 2026-04-17 13:36 | 35.55107 | -81.07447 | 8021 ft | 179 kts | 338° |
| 2026-04-17 13:36 | 35.56338 | -81.07744 | 8015 ft | 182 kts | 354° |
| 2026-04-17 13:36 | 35.57606 | -81.07834 | 8013 ft | 182 kts | 353° |
| 2026-04-17 13:37 | 35.58866 | -81.07940 | 8010 ft | 182 kts | 353° |
| 2026-04-17 13:37 | 35.60124 | -81.08045 | 8008 ft | 180 kts | 353° |
| 2026-04-17 13:37 | 35.61371 | -81.08148 | 8005 ft | 178 kts | 353° |
| 2026-04-17 13:37 | 35.62600 | -81.08248 | 7997 ft | 175 kts | 353° |
| 2026-04-17 13:38 | 35.63807 | -81.08347 | 7998 ft | 173 kts | 353° |
| 2026-04-17 13:38 | 35.65002 | -81.08446 | 7999 ft | 171 kts | 353° |
| 2026-04-17 13:38 | 35.66185 | -81.08544 | 8002 ft | 170 kts | 353° |
| 2026-04-17 13:38 | 35.67358 | -81.08640 | 8005 ft | 169 kts | 353° |
| 2026-04-17 13:39 | 35.68529 | -81.08736 | 8004 ft | 168 kts | 353° |
| 2026-04-17 13:39 | 35.69690 | -81.08829 | 8005 ft | 167 kts | 353° |
| 2026-04-17 13:39 | 35.70853 | -81.08923 | 8006 ft | 167 kts | 353° |
| 2026-04-17 13:39 | 35.72011 | -81.09016 | 8007 ft | 167 kts | 353° |
| 2026-04-17 13:40 | 35.73157 | -81.09108 | 8005 ft | 167 kts | 353° |
| 2026-04-17 13:40 | 35.73938 | -81.09172 | 8006 ft | 167 kts | 353° |
| 2026-04-17 13:40 | 35.75470 | -81.09296 | 8005 ft | 166 kts | 353° |
| 2026-04-17 13:40 | 35.76626 | -81.09389 | 8005 ft | 166 kts | 353° |
| 2026-04-17 13:41 | 35.77780 | -81.09482 | 8005 ft | 166 kts | 353° |
| 2026-04-17 13:41 | 35.78928 | -81.09575 | 8003 ft | 166 kts | 353° |
| 2026-04-17 13:41 | 35.79691 | -81.09637 | 8003 ft | 165 kts | 353° |
| 2026-04-17 13:41 | 35.80842 | -81.09730 | 8002 ft | 166 kts | 353° |
| 2026-04-17 13:42 | 35.81992 | -81.09824 | 8001 ft | 166 kts | 353° |
| 2026-04-17 13:42 | 35.83162 | -81.09918 | 8002 ft | 167 kts | 353° |
| 2026-04-17 13:42 | 35.84323 | -81.10013 | 7999 ft | 168 kts | 353° |
| 2026-04-17 13:42 | 35.85485 | -81.10106 | 7995 ft | 167 kts | 353° |
| 2026-04-17 13:43 | 35.86642 | -81.10200 | 7932 ft | 167 kts | 353° |
| 2026-04-17 13:43 | 35.87786 | -81.10293 | 7938 ft | 166 kts | 353° |
| 2026-04-17 13:43 | 35.88943 | -81.10386 | 7946 ft | 167 kts | 353° |
| 2026-04-17 13:43 | 35.90105 | -81.10481 | 7954 ft | 169 kts | 353° |
| 2026-04-17 13:44 | 35.91285 | -81.10577 | 7959 ft | 170 kts | 353° |
| 2026-04-17 13:44 | 35.92463 | -81.10672 | 7970 ft | 169 kts | 353° |
| 2026-04-17 13:44 | 35.93628 | -81.10766 | 7975 ft | 167 kts | 353° |
| 2026-04-17 13:44 | 35.94789 | -81.10861 | 7980 ft | 167 kts | 353° |
| 2026-04-17 13:45 | 35.95942 | -81.10954 | 7987 ft | 166 kts | 353° |
| 2026-04-17 13:45 | 35.97092 | -81.11048 | 7991 ft | 165 kts | 352° |
| 2026-04-17 13:45 | 35.98240 | -81.11142 | 7999 ft | 165 kts | 353° |
| 2026-04-17 13:45 | 35.99383 | -81.11234 | 8003 ft | 165 kts | 353° |
| 2026-04-17 13:46 | 36.00529 | -81.11328 | 8008 ft | 165 kts | 353° |
| 2026-04-17 13:46 | 36.01672 | -81.11421 | 8013 ft | 164 kts | 352° |
| 2026-04-17 13:46 | 36.02799 | -81.11512 | 8021 ft | 164 kts | 353° |
| 2026-04-17 13:46 | 36.03957 | -81.11607 | 8026 ft | 165 kts | 353° |
| 2026-04-17 13:47 | 36.05104 | -81.11700 | 8035 ft | 165 kts | 353° |
| 2026-04-17 13:47 | 36.06238 | -81.11792 | 8034 ft | 165 kts | 353° |
| 2026-04-17 13:47 | 36.07384 | -81.11886 | 8042 ft | 164 kts | 353° |
| 2026-04-17 13:47 | 36.08523 | -81.11979 | 8049 ft | 164 kts | 353° |
| 2026-04-17 13:48 | 36.09665 | -81.12071 | 8053 ft | 164 kts | 353° |
| 2026-04-17 13:48 | 36.10804 | -81.12164 | 8059 ft | 164 kts | 353° |
| 2026-04-17 13:48 | 36.11944 | -81.12258 | 8062 ft | 164 kts | 353° |
| 2026-04-17 13:48 | 36.13084 | -81.12351 | 8069 ft | 164 kts | 353° |
| 2026-04-17 13:49 | 36.14225 | -81.12444 | 8069 ft | 164 kts | 353° |
| 2026-04-17 13:49 | 36.15366 | -81.12537 | 8070 ft | 164 kts | 353° |
| 2026-04-17 13:49 | 36.16502 | -81.12630 | 8072 ft | 164 kts | 352° |
| 2026-04-17 13:49 | 36.17645 | -81.12723 | 8080 ft | 164 kts | 352° |
| 2026-04-17 13:50 | 36.18782 | -81.12815 | 8082 ft | 164 kts | 352° |
| 2026-04-17 13:50 | 36.19920 | -81.12909 | 8078 ft | 163 kts | 352° |
| 2026-04-17 13:50 | 36.21049 | -81.13001 | 8078 ft | 163 kts | 352° |
| 2026-04-17 13:50 | 36.22181 | -81.13094 | 8081 ft | 163 kts | 352° |
| 2026-04-17 13:51 | 36.23312 | -81.13186 | 8075 ft | 163 kts | 352° |
| 2026-04-17 13:51 | 36.24441 | -81.13279 | 8076 ft | 163 kts | 352° |
| 2026-04-17 13:51 | 36.25572 | -81.13371 | 8077 ft | 163 kts | 352° |
| 2026-04-17 13:51 | 36.26703 | -81.13464 | 8079 ft | 163 kts | 352° |
| 2026-04-17 13:52 | 36.27836 | -81.13557 | 8078 ft | 163 kts | 352° |
| 2026-04-17 13:52 | 36.28968 | -81.13650 | 8077 ft | 164 kts | 352° |
| 2026-04-17 13:52 | 36.30104 | -81.13742 | 8075 ft | 163 kts | 352° |
| 2026-04-17 13:52 | 36.31235 | -81.13835 | 8069 ft | 162 kts | 352° |
| 2026-04-17 13:53 | 36.32356 | -81.13927 | 8068 ft | 162 kts | 352° |
| 2026-04-17 13:53 | 36.33480 | -81.14020 | 8063 ft | 162 kts | 352° |
| 2026-04-17 13:53 | 36.34585 | -81.14110 | 8060 ft | 161 kts | 352° |
| 2026-04-17 13:53 | 36.35723 | -81.14204 | 8052 ft | 162 kts | 352° |
| 2026-04-17 13:54 | 36.37963 | -81.14386 | 8038 ft | 163 kts | 352° |
| 2026-04-17 13:54 | 36.39086 | -81.14479 | 8036 ft | 161 kts | 352° |
| 2026-04-17 13:55 | 36.41316 | -81.14666 | 8024 ft | 157 kts | 348° |
| 2026-04-17 13:55 | 36.42316 | -81.15054 | 8027 ft | 150 kts | 330° |
| 2026-04-17 13:55 | 36.44080 | -81.16468 | 8040 ft | 153 kts | 324° |
| 2026-04-17 13:56 | 36.45860 | -81.17909 | 8045 ft | 154 kts | 324° |
| 2026-04-17 13:56 | 36.46751 | -81.18631 | 8040 ft | 151 kts | 324° |
| 2026-04-17 13:56 | 36.47625 | -81.19339 | 8044 ft | 150 kts | 324° |
| 2026-04-17 13:57 | 36.48498 | -81.20049 | 8045 ft | 150 kts | 324° |
| 2026-04-17 13:57 | 36.49377 | -81.20762 | 8051 ft | 152 kts | 324° |
| 2026-04-17 13:57 | 36.51147 | -81.22200 | 8056 ft | 153 kts | 324° |
| 2026-04-17 13:58 | 36.52057 | -81.22939 | 8059 ft | 155 kts | 324° |
| 2026-04-17 13:58 | 36.53876 | -81.24418 | 8058 ft | 156 kts | 324° |
| 2026-04-17 13:58 | 36.54779 | -81.25152 | 8058 ft | 157 kts | 324° |
| 2026-04-17 13:59 | 36.56610 | -81.26642 | 7985 ft | 157 kts | 324° |
| 2026-04-17 13:59 | 36.57523 | -81.27386 | 7989 ft | 157 kts | 324° |
| 2026-04-17 13:59 | 36.58436 | -81.28128 | 7993 ft | 156 kts | 324° |
| 2026-04-17 14:00 | 36.59342 | -81.28865 | 7997 ft | 154 kts | 325° |
| 2026-04-17 14:00 | 36.60238 | -81.29594 | 7999 ft | 154 kts | 325° |
| 2026-04-17 14:00 | 36.61131 | -81.30326 | 8006 ft | 154 kts | 325° |
| 2026-04-17 14:00 | 36.62027 | -81.31056 | 8010 ft | 154 kts | 324° |
| 2026-04-17 14:01 | 36.62928 | -81.31789 | 8018 ft | 155 kts | 324° |
| 2026-04-17 14:01 | 36.63828 | -81.32523 | 8021 ft | 155 kts | 324° |
| 2026-04-17 14:01 | 36.64714 | -81.33244 | 8014 ft | 149 kts | 324° |
| 2026-04-17 14:01 | 36.65573 | -81.33951 | 8029 ft | 148 kts | 325° |
| 2026-04-17 14:02 | 36.66439 | -81.34655 | 8025 ft | 148 kts | 325° |
| 2026-04-17 14:02 | 36.67301 | -81.35358 | 8042 ft | 149 kts | 325° |
| 2026-04-17 14:02 | 36.68173 | -81.36070 | 8048 ft | 150 kts | 324° |
| 2026-04-17 14:02 | 36.69042 | -81.36779 | 8049 ft | 149 kts | 324° |
| 2026-04-17 14:03 | 36.69910 | -81.37491 | 8055 ft | 149 kts | 324° |
| 2026-04-17 14:03 | 36.70776 | -81.38198 | 8058 ft | 152 kts | 324° |
| 2026-04-17 14:03 | 36.71690 | -81.38945 | 8060 ft | 157 kts | 324° |
| 2026-04-17 14:03 | 36.72605 | -81.39693 | 8060 ft | 158 kts | 325° |
| 2026-04-17 14:04 | 36.73518 | -81.40441 | 8065 ft | 157 kts | 324° |
| 2026-04-17 14:04 | 36.74434 | -81.41190 | 8065 ft | 158 kts | 325° |
| 2026-04-17 14:04 | 36.75354 | -81.41943 | 8066 ft | 158 kts | 325° |
| 2026-04-17 14:04 | 36.76304 | -81.42636 | 8063 ft | 159 kts | 335° |
| 2026-04-17 14:05 | 36.77379 | -81.42956 | 8074 ft | 160 kts | 347° |
| 2026-04-17 14:05 | 36.78455 | -81.43177 | 8075 ft | 159 kts | 346° |
| 2026-04-17 14:05 | 36.79544 | -81.43410 | 8076 ft | 159 kts | 347° |
| 2026-04-17 14:05 | 36.80631 | -81.43641 | 8078 ft | 158 kts | 347° |
| 2026-04-17 14:06 | 36.81719 | -81.43871 | 8086 ft | 160 kts | 346° |
| 2026-04-17 14:06 | 36.82815 | -81.44103 | 8093 ft | 160 kts | 346° |
| 2026-04-17 14:06 | 36.83916 | -81.44337 | 8092 ft | 161 kts | 346° |
| 2026-04-17 14:06 | 36.85019 | -81.44569 | 8093 ft | 160 kts | 346° |
| 2026-04-17 14:07 | 36.86117 | -81.44802 | 8091 ft | 160 kts | 346° |
| 2026-04-17 14:07 | 36.87214 | -81.45035 | 8089 ft | 159 kts | 346° |
| 2026-04-17 14:07 | 36.88302 | -81.45265 | 8088 ft | 158 kts | 346° |
| 2026-04-17 14:07 | 36.89386 | -81.45496 | 8092 ft | 158 kts | 346° |
| 2026-04-17 14:08 | 36.90471 | -81.45725 | 8088 ft | 158 kts | 346° |
| 2026-04-17 14:08 | 36.91551 | -81.45955 | 8089 ft | 157 kts | 346° |
| 2026-04-17 14:08 | 36.92633 | -81.46185 | 8089 ft | 158 kts | 346° |
| 2026-04-17 14:08 | 36.93718 | -81.46414 | 8092 ft | 158 kts | 346° |
| 2026-04-17 14:09 | 36.94801 | -81.46645 | 8090 ft | 158 kts | 346° |
| 2026-04-17 14:09 | 36.95884 | -81.46877 | 8085 ft | 158 kts | 346° |
| 2026-04-17 14:09 | 36.96967 | -81.47101 | 8084 ft | 157 kts | 346° |
| 2026-04-17 14:09 | 36.98044 | -81.47334 | 8072 ft | 156 kts | 345° |
| 2026-04-17 14:10 | 36.99113 | -81.47562 | 8074 ft | 156 kts | 346° |
| 2026-04-17 14:10 | 37.00181 | -81.47786 | 8073 ft | 156 kts | 346° |
| 2026-04-17 14:10 | 37.01249 | -81.48018 | 8068 ft | 156 kts | 346° |
| 2026-04-17 14:10 | 37.02324 | -81.48246 | 8062 ft | 157 kts | 346° |
| 2026-04-17 14:11 | 37.03408 | -81.48476 | 8062 ft | 158 kts | 346° |
| 2026-04-17 14:11 | 37.04475 | -81.48703 | 8057 ft | 157 kts | 346° |
| 2026-04-17 14:11 | 37.05563 | -81.48935 | 8049 ft | 157 kts | 347° |
| 2026-04-17 14:11 | 37.06642 | -81.49165 | 8049 ft | 158 kts | 346° |
| 2026-04-17 14:12 | 37.07727 | -81.49397 | 8043 ft | 158 kts | 346° |
| 2026-04-17 14:12 | 37.08807 | -81.49627 | 8037 ft | 157 kts | 347° |
| 2026-04-17 14:12 | 37.09863 | -81.49856 | 8035 ft | 153 kts | 346° |
| 2026-04-17 14:13 | 37.12007 | -81.50310 | 8026 ft | 157 kts | 346° |
| 2026-04-17 14:13 | 37.13087 | -81.50540 | 8024 ft | 158 kts | 346° |
| 2026-04-17 14:13 | 37.14171 | -81.50771 | 8020 ft | 158 kts | 346° |
| 2026-04-17 14:13 | 37.15256 | -81.51003 | 8012 ft | 158 kts | 347° |
| 2026-04-17 14:14 | 37.16334 | -81.51232 | 8012 ft | 157 kts | 347° |
| 2026-04-17 14:14 | 37.17416 | -81.51463 | 8014 ft | 158 kts | 346° |
| 2026-04-17 14:14 | 37.18502 | -81.51696 | 8005 ft | 158 kts | 346° |
| 2026-04-17 14:14 | 37.19586 | -81.51927 | 7999 ft | 158 kts | 347° |
| 2026-04-17 14:15 | 37.20674 | -81.52160 | 7994 ft | 159 kts | 347° |
| 2026-04-17 14:15 | 37.21767 | -81.52394 | 7985 ft | 159 kts | 346° |
| 2026-04-17 14:15 | 37.22855 | -81.52625 | 7982 ft | 158 kts | 346° |
| 2026-04-17 14:15 | 37.23930 | -81.52859 | 7980 ft | 155 kts | 347° |
| 2026-04-17 14:16 | 37.24995 | -81.53083 | 7982 ft | 155 kts | 347° |
| 2026-04-17 14:16 | 37.26063 | -81.53311 | 7981 ft | 157 kts | 346° |
| 2026-04-17 14:16 | 37.27136 | -81.53543 | 8020 ft | 157 kts | 346° |
| 2026-04-17 14:16 | 37.28212 | -81.53774 | 8017 ft | 156 kts | 347° |
| 2026-04-17 14:17 | 37.29284 | -81.54001 | 8019 ft | 157 kts | 347° |
| 2026-04-17 14:17 | 37.30358 | -81.54233 | 8020 ft | 156 kts | 346° |
| 2026-04-17 14:17 | 37.31415 | -81.54459 | 8017 ft | 155 kts | 347° |
| 2026-04-17 14:17 | 37.32479 | -81.54686 | 8007 ft | 154 kts | 347° |
| 2026-04-17 14:18 | 37.33540 | -81.54914 | 8010 ft | 155 kts | 346° |
| 2026-04-17 14:18 | 37.34604 | -81.55142 | 8010 ft | 156 kts | 346° |
| 2026-04-17 14:18 | 37.35669 | -81.55372 | 8013 ft | 154 kts | 347° |
| 2026-04-17 14:18 | 37.36727 | -81.55597 | 8013 ft | 154 kts | 347° |
| 2026-04-17 14:19 | 37.37788 | -81.55826 | 8013 ft | 156 kts | 346° |
| 2026-04-17 14:19 | 37.38863 | -81.56058 | 8010 ft | 157 kts | 346° |
| 2026-04-17 14:19 | 37.39945 | -81.56290 | 8005 ft | 157 kts | 347° |
| 2026-04-17 14:19 | 37.41024 | -81.56522 | 7989 ft | 158 kts | 346° |
| 2026-04-17 14:20 | 37.42109 | -81.56755 | 7982 ft | 158 kts | 346° |
| 2026-04-17 14:20 | 37.43196 | -81.56989 | 7986 ft | 158 kts | 347° |
| 2026-04-17 14:20 | 37.44275 | -81.57221 | 7988 ft | 158 kts | 346° |
| 2026-04-17 14:20 | 37.45362 | -81.57455 | 7987 ft | 160 kts | 347° |
| 2026-04-17 14:21 | 37.46460 | -81.57691 | 7987 ft | 160 kts | 347° |
| 2026-04-17 14:21 | 37.47554 | -81.57926 | 7982 ft | 159 kts | 347° |
| 2026-04-17 14:21 | 37.48642 | -81.58160 | 7984 ft | 159 kts | 347° |
| 2026-04-17 14:21 | 37.49735 | -81.58396 | 7984 ft | 160 kts | 348° |
| 2026-04-17 14:22 | 37.50833 | -81.58630 | 7990 ft | 160 kts | 346° |
| 2026-04-17 14:22 | 37.51934 | -81.58870 | 7986 ft | 161 kts | 347° |
| 2026-04-17 14:22 | 37.53035 | -81.59108 | 7989 ft | 160 kts | 347° |
| 2026-04-17 14:22 | 37.54132 | -81.59345 | 7988 ft | 160 kts | 347° |
| 2026-04-17 14:23 | 37.55232 | -81.59584 | 7987 ft | 160 kts | 346° |
| 2026-04-17 14:23 | 37.56317 | -81.59816 | 7986 ft | 160 kts | 347° |
| 2026-04-17 14:23 | 37.57412 | -81.60051 | 7981 ft | 159 kts | 347° |
| 2026-04-17 14:23 | 37.58504 | -81.60289 | 7981 ft | 159 kts | 347° |
| 2026-04-17 14:24 | 37.59596 | -81.60526 | 7981 ft | 159 kts | 346° |
| 2026-04-17 14:24 | 37.60683 | -81.60759 | 7986 ft | 159 kts | 346° |
| 2026-04-17 14:24 | 37.61764 | -81.60992 | 7963 ft | 156 kts | 346° |
| 2026-04-17 14:24 | 37.62825 | -81.61222 | 7967 ft | 155 kts | 346° |
| 2026-04-17 14:25 | 37.63883 | -81.61453 | 7986 ft | 156 kts | 347° |
| 2026-04-17 14:25 | 37.64960 | -81.61684 | 7987 ft | 158 kts | 347° |
| 2026-04-17 14:25 | 37.66045 | -81.61919 | 7985 ft | 159 kts | 346° |
| 2026-04-17 14:25 | 37.67130 | -81.62154 | 7988 ft | 157 kts | 346° |
| 2026-04-17 14:26 | 37.68216 | -81.62390 | 7990 ft | 159 kts | 347° |
| 2026-04-17 14:26 | 37.69315 | -81.62628 | 7990 ft | 161 kts | 347° |
| 2026-04-17 14:26 | 37.70405 | -81.62863 | 7986 ft | 158 kts | 346° |
| 2026-04-17 14:26 | 37.71127 | -81.63020 | 7988 ft | 159 kts | 346° |
| 2026-04-17 14:27 | 37.72213 | -81.63257 | 7981 ft | 157 kts | 346° |
| 2026-04-17 14:27 | 37.73285 | -81.63489 | 7988 ft | 157 kts | 347° |
| 2026-04-17 14:27 | 37.74373 | -81.63725 | 7986 ft | 160 kts | 347° |
| 2026-04-17 14:27 | 37.75469 | -81.63962 | 7986 ft | 160 kts | 347° |
| 2026-04-17 14:28 | 37.76548 | -81.64194 | 7975 ft | 154 kts | 346° |
| 2026-04-17 14:28 | 37.77608 | -81.64430 | 7987 ft | 156 kts | 347° |
| 2026-04-17 14:28 | 37.78684 | -81.64661 | 7985 ft | 157 kts | 347° |
| 2026-04-17 14:28 | 37.79766 | -81.64896 | 7982 ft | 158 kts | 346° |
| 2026-04-17 14:29 | 37.80854 | -81.65132 | 7979 ft | 158 kts | 347° |
| 2026-04-17 14:29 | 37.81928 | -81.65366 | 7985 ft | 159 kts | 347° |
| 2026-04-17 14:29 | 37.83021 | -81.65605 | 7984 ft | 161 kts | 346° |
| 2026-04-17 14:29 | 37.84127 | -81.65845 | 7973 ft | 160 kts | 347° |
| 2026-04-17 14:30 | 37.85236 | -81.66086 | 7979 ft | 163 kts | 347° |
| 2026-04-17 14:30 | 37.86357 | -81.66330 | 7982 ft | 163 kts | 347° |
| 2026-04-17 14:30 | 37.87481 | -81.66574 | 7981 ft | 164 kts | 347° |
| 2026-04-17 14:30 | 37.88609 | -81.66821 | 7979 ft | 165 kts | 347° |
| 2026-04-17 14:31 | 37.89734 | -81.67066 | 7988 ft | 164 kts | 347° |
| 2026-04-17 14:31 | 37.90858 | -81.67311 | 7989 ft | 164 kts | 347° |
| 2026-04-17 14:31 | 37.91984 | -81.67556 | 7985 ft | 164 kts | 347° |
| 2026-04-17 14:31 | 37.93103 | -81.67799 | 7987 ft | 162 kts | 346° |
| 2026-04-17 14:32 | 37.94214 | -81.68043 | 7986 ft | 162 kts | 347° |
| 2026-04-17 14:32 | 37.95329 | -81.68285 | 7985 ft | 162 kts | 347° |
| 2026-04-17 14:32 | 37.96437 | -81.68529 | 7991 ft | 162 kts | 347° |
| 2026-04-17 14:32 | 37.97552 | -81.68772 | 7979 ft | 162 kts | 347° |
| 2026-04-17 14:33 | 37.98654 | -81.69013 | 7979 ft | 160 kts | 347° |
| 2026-04-17 14:33 | 37.99752 | -81.69251 | 7973 ft | 159 kts | 346° |
| 2026-04-17 14:33 | 38.00839 | -81.69490 | 7980 ft | 159 kts | 346° |
| 2026-04-17 14:33 | 38.01931 | -81.69730 | 7979 ft | 160 kts | 347° |
| 2026-04-17 14:34 | 38.03027 | -81.69969 | 7978 ft | 160 kts | 347° |
| 2026-04-17 14:34 | 38.04123 | -81.70209 | 7980 ft | 160 kts | 347° |
| 2026-04-17 14:34 | 38.05222 | -81.70448 | 7980 ft | 160 kts | 346° |
| 2026-04-17 14:34 | 38.06320 | -81.70690 | 7981 ft | 161 kts | 346° |
| 2026-04-17 14:35 | 38.07409 | -81.70927 | 7981 ft | 160 kts | 346° |
| 2026-04-17 14:35 | 38.08502 | -81.71167 | 7986 ft | 159 kts | 347° |
| 2026-04-17 14:35 | 38.09594 | -81.71406 | 7984 ft | 160 kts | 346° |
| 2026-04-17 14:35 | 38.10692 | -81.71646 | 7986 ft | 160 kts | 346° |
| 2026-04-17 14:36 | 38.11797 | -81.71889 | 7984 ft | 161 kts | 347° |
| 2026-04-17 14:36 | 38.12902 | -81.72132 | 7984 ft | 161 kts | 346° |
| 2026-04-17 14:36 | 38.14009 | -81.72375 | 7984 ft | 161 kts | 347° |
| 2026-04-17 14:36 | 38.15115 | -81.72617 | 7986 ft | 162 kts | 347° |
| 2026-04-17 14:37 | 38.16224 | -81.72861 | 7988 ft | 162 kts | 347° |
| 2026-04-17 14:37 | 38.17332 | -81.73105 | 7988 ft | 161 kts | 347° |
| 2026-04-17 14:37 | 38.18436 | -81.73346 | 7990 ft | 161 kts | 346° |
| 2026-04-17 14:37 | 38.19542 | -81.73590 | 7989 ft | 161 kts | 347° |
| 2026-04-17 14:38 | 38.20647 | -81.73832 | 7993 ft | 162 kts | 347° |
| 2026-04-17 14:38 | 38.21753 | -81.74076 | 7993 ft | 161 kts | 347° |
| 2026-04-17 14:38 | 38.22858 | -81.74318 | 7994 ft | 161 kts | 347° |
| 2026-04-17 14:38 | 38.23959 | -81.74562 | 7996 ft | 161 kts | 347° |
| 2026-04-17 14:39 | 38.25058 | -81.74803 | 7991 ft | 159 kts | 347° |
| 2026-04-17 14:39 | 38.26149 | -81.75043 | 7993 ft | 159 kts | 347° |
| 2026-04-17 14:39 | 38.27241 | -81.75284 | 7993 ft | 159 kts | 347° |
| 2026-04-17 14:39 | 38.28321 | -81.75522 | 7996 ft | 160 kts | 347° |
| 2026-04-17 14:40 | 38.29416 | -81.75763 | 7994 ft | 159 kts | 347° |
| 2026-04-17 14:40 | 38.30510 | -81.76005 | 7997 ft | 160 kts | 347° |
| 2026-04-17 14:40 | 38.31611 | -81.76247 | 7993 ft | 160 kts | 347° |
| 2026-04-17 14:40 | 38.32707 | -81.76489 | 7995 ft | 160 kts | 347° |
| 2026-04-17 14:41 | 38.33806 | -81.76731 | 7996 ft | 160 kts | 347° |
| 2026-04-17 14:41 | 38.34899 | -81.76970 | 7990 ft | 159 kts | 348° |
| 2026-04-17 14:41 | 38.36006 | -81.77062 | 7993 ft | 160 kts | 353° |
| 2026-04-17 14:41 | 38.37123 | -81.77131 | 7998 ft | 160 kts | 353° |
| 2026-04-17 14:42 | 38.38236 | -81.77205 | 8003 ft | 161 kts | 353° |
| 2026-04-17 14:42 | 38.39358 | -81.77280 | 7996 ft | 161 kts | 353° |
| 2026-04-17 14:42 | 38.40471 | -81.77354 | 7998 ft | 160 kts | 353° |
| 2026-04-17 14:42 | 38.41576 | -81.77428 | 8000 ft | 160 kts | 353° |
| 2026-04-17 14:43 | 38.42691 | -81.77502 | 7999 ft | 161 kts | 353° |
| 2026-04-17 14:43 | 38.43812 | -81.77578 | 8000 ft | 162 kts | 353° |
| 2026-04-17 14:43 | 38.44942 | -81.77652 | 7999 ft | 162 kts | 353° |
| 2026-04-17 14:43 | 38.46070 | -81.77728 | 7998 ft | 162 kts | 353° |
| 2026-04-17 14:44 | 38.47193 | -81.77802 | 7997 ft | 161 kts | 353° |
| 2026-04-17 14:44 | 38.48313 | -81.77878 | 7996 ft | 161 kts | 353° |
| 2026-04-17 14:44 | 38.49433 | -81.77952 | 7995 ft | 161 kts | 353° |
| 2026-04-17 14:44 | 38.50554 | -81.78027 | 7996 ft | 162 kts | 353° |
| 2026-04-17 14:45 | 38.51675 | -81.78102 | 7994 ft | 161 kts | 353° |
| 2026-04-17 14:45 | 38.52792 | -81.78177 | 7994 ft | 161 kts | 353° |
| 2026-04-17 14:45 | 38.53914 | -81.78252 | 7995 ft | 161 kts | 353° |
| 2026-04-17 14:45 | 38.55031 | -81.78327 | 7993 ft | 161 kts | 353° |
| 2026-04-17 14:46 | 38.56149 | -81.78401 | 7989 ft | 161 kts | 353° |
| 2026-04-17 14:46 | 38.57256 | -81.78477 | 7987 ft | 162 kts | 353° |
| 2026-04-17 14:46 | 38.58386 | -81.78551 | 7988 ft | 162 kts | 353° |
| 2026-04-17 14:46 | 38.59511 | -81.78626 | 7987 ft | 161 kts | 353° |
| 2026-04-17 14:47 | 38.60627 | -81.78702 | 7989 ft | 160 kts | 353° |
| 2026-04-17 14:47 | 38.61740 | -81.78776 | 7989 ft | 160 kts | 353° |
| 2026-04-17 14:47 | 38.62854 | -81.78851 | 7989 ft | 160 kts | 353° |
| 2026-04-17 14:47 | 38.63973 | -81.78925 | 7987 ft | 161 kts | 353° |
| 2026-04-17 14:48 | 38.65087 | -81.79001 | 7984 ft | 160 kts | 353° |
| 2026-04-17 14:48 | 38.66195 | -81.79074 | 7981 ft | 159 kts | 353° |
| 2026-04-17 14:48 | 38.67299 | -81.79149 | 7981 ft | 159 kts | 353° |
| 2026-04-17 14:48 | 38.68407 | -81.79223 | 7980 ft | 160 kts | 353° |
| 2026-04-17 14:49 | 38.69513 | -81.79298 | 7980 ft | 159 kts | 353° |
| 2026-04-17 14:49 | 38.70618 | -81.79372 | 7981 ft | 159 kts | 353° |
| 2026-04-17 14:49 | 38.71723 | -81.79447 | 7982 ft | 159 kts | 353° |
| 2026-04-17 14:49 | 38.72830 | -81.79521 | 7983 ft | 160 kts | 353° |
| 2026-04-17 14:50 | 38.73941 | -81.79595 | 7975 ft | 160 kts | 353° |
| 2026-04-17 14:50 | 38.75056 | -81.79670 | 7983 ft | 160 kts | 353° |
| 2026-04-17 14:50 | 38.76168 | -81.79745 | 7984 ft | 160 kts | 353° |
| 2026-04-17 14:50 | 38.77282 | -81.79821 | 7982 ft | 161 kts | 353° |
| 2026-04-17 14:51 | 38.78399 | -81.79896 | 7980 ft | 160 kts | 353° |
| 2026-04-17 14:51 | 38.79512 | -81.79970 | 7983 ft | 160 kts | 353° |
| 2026-04-17 14:51 | 38.80631 | -81.80046 | 7984 ft | 161 kts | 353° |
| 2026-04-17 14:51 | 38.81750 | -81.80121 | 7982 ft | 161 kts | 353° |
| 2026-04-17 14:52 | 38.82853 | -81.80195 | 7985 ft | 160 kts | 353° |
| 2026-04-17 14:52 | 38.83965 | -81.80271 | 7987 ft | 160 kts | 353° |
| 2026-04-17 14:52 | 38.85081 | -81.80346 | 7984 ft | 160 kts | 353° |
| 2026-04-17 14:52 | 38.86198 | -81.80422 | 7980 ft | 161 kts | 353° |
| 2026-04-17 14:53 | 38.87315 | -81.80497 | 7982 ft | 161 kts | 353° |
| 2026-04-17 14:53 | 38.88429 | -81.80572 | 7978 ft | 160 kts | 353° |
| 2026-04-17 14:53 | 38.89540 | -81.80647 | 7974 ft | 160 kts | 353° |
| 2026-04-17 14:53 | 38.90645 | -81.80722 | 7974 ft | 159 kts | 353° |
| 2026-04-17 14:54 | 38.91749 | -81.80797 | 7977 ft | 159 kts | 353° |
| 2026-04-17 14:54 | 38.92857 | -81.80872 | 7979 ft | 160 kts | 353° |
| 2026-04-17 14:54 | 38.93968 | -81.80947 | 7979 ft | 160 kts | 353° |
| 2026-04-17 14:54 | 38.95079 | -81.81023 | 7981 ft | 161 kts | 353° |
| 2026-04-17 14:55 | 38.96195 | -81.81098 | 7982 ft | 161 kts | 353° |
| 2026-04-17 14:55 | 38.97313 | -81.81174 | 7983 ft | 160 kts | 353° |
| 2026-04-17 14:55 | 38.98423 | -81.81248 | 7984 ft | 160 kts | 353° |
| 2026-04-17 14:55 | 38.99533 | -81.81324 | 7983 ft | 160 kts | 353° |
| 2026-04-17 14:56 | 39.00643 | -81.81399 | 7978 ft | 160 kts | 353° |
| 2026-04-17 14:56 | 39.01755 | -81.81474 | 7978 ft | 160 kts | 353° |
| 2026-04-17 14:56 | 39.02868 | -81.81550 | 7984 ft | 160 kts | 353° |
| 2026-04-17 14:56 | 39.03976 | -81.81625 | 7986 ft | 160 kts | 353° |
| 2026-04-17 14:57 | 39.05088 | -81.81700 | 7983 ft | 160 kts | 353° |
| 2026-04-17 14:57 | 39.06184 | -81.81775 | 7984 ft | 160 kts | 353° |
| 2026-04-17 14:57 | 39.07295 | -81.81851 | 7987 ft | 160 kts | 353° |
| 2026-04-17 14:57 | 39.08406 | -81.81926 | 7987 ft | 160 kts | 353° |
| 2026-04-17 14:58 | 39.09514 | -81.82001 | 7988 ft | 159 kts | 353° |
| 2026-04-17 14:58 | 39.10622 | -81.82077 | 7990 ft | 159 kts | 353° |
| 2026-04-17 14:58 | 39.11729 | -81.82152 | 7987 ft | 159 kts | 353° |
| 2026-04-17 14:58 | 39.12839 | -81.82227 | 7987 ft | 161 kts | 353° |
| 2026-04-17 14:59 | 39.13956 | -81.82303 | 7988 ft | 160 kts | 353° |
| 2026-04-17 14:59 | 39.15074 | -81.82379 | 7986 ft | 160 kts | 353° |
| 2026-04-17 14:59 | 39.16184 | -81.82455 | 7986 ft | 160 kts | 353° |
| 2026-04-17 14:59 | 39.17298 | -81.82532 | 7986 ft | 160 kts | 353° |
| 2026-04-17 15:00 | 39.18407 | -81.82606 | 7985 ft | 160 kts | 353° |
| 2026-04-17 15:00 | 39.19525 | -81.82682 | 7991 ft | 161 kts | 353° |
| 2026-04-17 15:00 | 39.20647 | -81.82758 | 7990 ft | 162 kts | 353° |
| 2026-04-17 15:00 | 39.21778 | -81.82837 | 7985 ft | 163 kts | 353° |
| 2026-04-17 15:01 | 39.22904 | -81.82913 | 7985 ft | 162 kts | 353° |
| 2026-04-17 15:01 | 39.24026 | -81.82990 | 7984 ft | 161 kts | 353° |
| 2026-04-17 15:01 | 39.25140 | -81.83066 | 7984 ft | 160 kts | 353° |
| 2026-04-17 15:01 | 39.26254 | -81.83141 | 7982 ft | 162 kts | 353° |
| 2026-04-17 15:02 | 39.27376 | -81.83218 | 7985 ft | 161 kts | 353° |
| 2026-04-17 15:02 | 39.28494 | -81.83294 | 7993 ft | 161 kts | 353° |
| 2026-04-17 15:02 | 39.29620 | -81.83371 | 7985 ft | 163 kts | 353° |
| 2026-04-17 15:02 | 39.30755 | -81.83450 | 7986 ft | 163 kts | 353° |
| 2026-04-17 15:03 | 39.31880 | -81.83528 | 7990 ft | 162 kts | 353° |
| 2026-04-17 15:03 | 39.33008 | -81.83603 | 7986 ft | 162 kts | 353° |
| 2026-04-17 15:03 | 39.34135 | -81.83680 | 7984 ft | 162 kts | 353° |
| 2026-04-17 15:03 | 39.35258 | -81.83757 | 7985 ft | 161 kts | 353° |
| 2026-04-17 15:04 | 39.36374 | -81.83833 | 7980 ft | 161 kts | 353° |
| 2026-04-17 15:04 | 39.37490 | -81.83910 | 7982 ft | 160 kts | 353° |
| 2026-04-17 15:04 | 39.38589 | -81.83986 | 7975 ft | 160 kts | 353° |
| 2026-04-17 15:04 | 39.39699 | -81.84062 | 7976 ft | 160 kts | 353° |
| 2026-04-17 15:05 | 39.40808 | -81.84138 | 7986 ft | 160 kts | 353° |
| 2026-04-17 15:05 | 39.41932 | -81.84218 | 7976 ft | 162 kts | 353° |
| 2026-04-17 15:05 | 39.43053 | -81.84290 | 7979 ft | 160 kts | 353° |
| 2026-04-17 15:05 | 39.44169 | -81.84368 | 7977 ft | 161 kts | 353° |
| 2026-04-17 15:06 | 39.45283 | -81.84444 | 7977 ft | 160 kts | 353° |
| 2026-04-17 15:06 | 39.46393 | -81.84521 | 7977 ft | 160 kts | 353° |
| 2026-04-17 15:06 | 39.47501 | -81.84597 | 7972 ft | 159 kts | 353° |
| 2026-04-17 15:06 | 39.48611 | -81.84673 | 7974 ft | 159 kts | 353° |
| 2026-04-17 15:07 | 39.49714 | -81.84749 | 7966 ft | 159 kts | 353° |
| 2026-04-17 15:07 | 39.50823 | -81.84825 | 7967 ft | 159 kts | 353° |
| 2026-04-17 15:07 | 39.51924 | -81.84901 | 7977 ft | 158 kts | 353° |
| 2026-04-17 15:07 | 39.53023 | -81.84977 | 7978 ft | 159 kts | 353° |
| 2026-04-17 15:08 | 39.54128 | -81.85053 | 7979 ft | 159 kts | 353° |
| 2026-04-17 15:08 | 39.55237 | -81.85129 | 7977 ft | 159 kts | 353° |
| 2026-04-17 15:08 | 39.56353 | -81.85206 | 7977 ft | 162 kts | 353° |
| 2026-04-17 15:08 | 39.57473 | -81.85284 | 7981 ft | 161 kts | 353° |
| 2026-04-17 15:09 | 39.58593 | -81.85360 | 7974 ft | 161 kts | 353° |
| 2026-04-17 15:09 | 39.59708 | -81.85437 | 7976 ft | 161 kts | 353° |
| 2026-04-17 15:09 | 39.60825 | -81.85514 | 7976 ft | 160 kts | 353° |
| 2026-04-17 15:09 | 39.61923 | -81.85590 | 7978 ft | 160 kts | 353° |
| 2026-04-17 15:10 | 39.63035 | -81.85667 | 7976 ft | 160 kts | 353° |
| 2026-04-17 15:10 | 39.64145 | -81.85743 | 7983 ft | 159 kts | 353° |
| 2026-04-17 15:10 | 39.65268 | -81.85821 | 7989 ft | 161 kts | 353° |
| 2026-04-17 15:11 | 39.67500 | -81.85975 | 7983 ft | 161 kts | 353° |
| 2026-04-17 15:11 | 39.68616 | -81.86052 | 7987 ft | 160 kts | 353° |
| 2026-04-17 15:11 | 39.69730 | -81.86129 | 7975 ft | 160 kts | 353° |
| 2026-04-17 15:11 | 39.70839 | -81.86206 | 7988 ft | 159 kts | 353° |
| 2026-04-17 15:12 | 39.71935 | -81.86373 | 7990 ft | 158 kts | 349° |
| 2026-04-17 15:12 | 39.73024 | -81.86570 | 7989 ft | 158 kts | 349° |
| 2026-04-17 15:12 | 39.74112 | -81.86763 | 7993 ft | 158 kts | 349° |
| 2026-04-17 15:12 | 39.75202 | -81.86955 | 7996 ft | 158 kts | 349° |
| 2026-04-17 15:13 | 39.76292 | -81.87148 | 7998 ft | 158 kts | 349° |
| 2026-04-17 15:13 | 39.77375 | -81.87341 | 7994 ft | 157 kts | 349° |
| 2026-04-17 15:13 | 39.78109 | -81.87472 | 8003 ft | 158 kts | 349° |
| 2026-04-17 15:13 | 39.79180 | -81.87662 | 8001 ft | 158 kts | 349° |
| 2026-04-17 15:14 | 39.80271 | -81.87856 | 8005 ft | 158 kts | 349° |
| 2026-04-17 15:14 | 39.81362 | -81.88051 | 8004 ft | 159 kts | 349° |
| 2026-04-17 15:14 | 39.82457 | -81.88245 | 8007 ft | 159 kts | 349° |
| 2026-04-17 15:14 | 39.83551 | -81.88440 | 8010 ft | 159 kts | 349° |
| 2026-04-17 15:15 | 39.84649 | -81.88636 | 8007 ft | 159 kts | 349° |
| 2026-04-17 15:15 | 39.85748 | -81.88832 | 8009 ft | 159 kts | 349° |
| 2026-04-17 15:15 | 39.86848 | -81.89029 | 8004 ft | 159 kts | 349° |
| 2026-04-17 15:15 | 39.87945 | -81.89223 | 8010 ft | 160 kts | 349° |
| 2026-04-17 15:16 | 39.89045 | -81.89420 | 8011 ft | 160 kts | 349° |
| 2026-04-17 15:16 | 39.90148 | -81.89617 | 8004 ft | 159 kts | 349° |
| 2026-04-17 15:16 | 39.91246 | -81.89813 | 8010 ft | 159 kts | 349° |
| 2026-04-17 15:16 | 39.92339 | -81.90008 | 8007 ft | 159 kts | 349° |
| 2026-04-17 15:17 | 39.93433 | -81.90204 | 8010 ft | 159 kts | 349° |
| 2026-04-17 15:17 | 39.94529 | -81.90399 | 8011 ft | 158 kts | 349° |
| 2026-04-17 15:17 | 39.95623 | -81.90595 | 8014 ft | 159 kts | 349° |
| 2026-04-17 15:17 | 39.96730 | -81.90793 | 8019 ft | 161 kts | 349° |
| 2026-04-17 15:18 | 39.97842 | -81.90991 | 8017 ft | 161 kts | 350° |
| 2026-04-17 15:18 | 39.98953 | -81.91189 | 8007 ft | 162 kts | 350° |
| 2026-04-17 15:18 | 40.00067 | -81.91389 | 8009 ft | 162 kts | 350° |
| 2026-04-17 15:18 | 40.01179 | -81.91590 | 8018 ft | 161 kts | 350° |
| 2026-04-17 15:19 | 40.02296 | -81.91790 | 8011 ft | 163 kts | 350° |
| 2026-04-17 15:19 | 40.03415 | -81.91989 | 8011 ft | 161 kts | 350° |
| 2026-04-17 15:19 | 40.04526 | -81.92189 | 8006 ft | 163 kts | 350° |
| 2026-04-17 15:19 | 40.05647 | -81.92389 | 8008 ft | 162 kts | 350° |
| 2026-04-17 15:20 | 40.06749 | -81.92587 | 8007 ft | 161 kts | 350° |
| 2026-04-17 15:20 | 40.07873 | -81.92789 | 7976 ft | 161 kts | 350° |
| 2026-04-17 15:20 | 40.08974 | -81.92987 | 7974 ft | 161 kts | 349° |
| 2026-04-17 15:20 | 40.10084 | -81.93186 | 7977 ft | 160 kts | 349° |
| 2026-04-17 15:21 | 40.11187 | -81.93384 | 7977 ft | 160 kts | 350° |
| 2026-04-17 15:21 | 40.12302 | -81.93584 | 7982 ft | 163 kts | 349° |
| 2026-04-17 15:21 | 40.13417 | -81.93785 | 7976 ft | 161 kts | 350° |
| 2026-04-17 15:21 | 40.14529 | -81.93985 | 7982 ft | 162 kts | 349° |
| 2026-04-17 15:22 | 40.15656 | -81.94187 | 7980 ft | 164 kts | 349° |
| 2026-04-17 15:22 | 40.16778 | -81.94389 | 7970 ft | 162 kts | 349° |
| 2026-04-17 15:22 | 40.17893 | -81.94590 | 7976 ft | 161 kts | 349° |
| 2026-04-17 15:22 | 40.19001 | -81.94789 | 7975 ft | 160 kts | 349° |
| 2026-04-17 15:23 | 40.20106 | -81.94988 | 7977 ft | 160 kts | 351° |
| 2026-04-17 15:23 | 40.21210 | -81.95187 | 7975 ft | 160 kts | 351° |
| 2026-04-17 15:23 | 40.22316 | -81.95386 | 7981 ft | 161 kts | 350° |
| 2026-04-17 15:23 | 40.23421 | -81.95586 | 7977 ft | 160 kts | 351° |
| 2026-04-17 15:24 | 40.24528 | -81.95785 | 7981 ft | 160 kts | 351° |
| 2026-04-17 15:24 | 40.25632 | -81.95984 | 7981 ft | 160 kts | 351° |
| 2026-04-17 15:24 | 40.26741 | -81.96184 | 7978 ft | 161 kts | 351° |
| 2026-04-17 15:24 | 40.27846 | -81.96384 | 7981 ft | 161 kts | 351° |
| 2026-04-17 15:25 | 40.28954 | -81.96584 | 7976 ft | 161 kts | 351° |
| 2026-04-17 15:25 | 40.30062 | -81.96783 | 7973 ft | 161 kts | 351° |
| 2026-04-17 15:25 | 40.31169 | -81.96984 | 7973 ft | 161 kts | 351° |
| 2026-04-17 15:25 | 40.32277 | -81.97184 | 7977 ft | 161 kts | 351° |
| 2026-04-17 15:26 | 40.33390 | -81.97385 | 7983 ft | 162 kts | 351° |
| 2026-04-17 15:26 | 40.34514 | -81.97590 | 7971 ft | 163 kts | 351° |
| 2026-04-17 15:26 | 40.35633 | -81.97791 | 7971 ft | 161 kts | 351° |
| 2026-04-17 15:26 | 40.36745 | -81.97992 | 7980 ft | 163 kts | 351° |
| 2026-04-17 15:27 | 40.37864 | -81.98196 | 7977 ft | 162 kts | 350° |
| 2026-04-17 15:27 | 40.38984 | -81.98398 | 7971 ft | 161 kts | 351° |
| 2026-04-17 15:27 | 40.40093 | -81.98599 | 7968 ft | 161 kts | 351° |
| 2026-04-17 15:27 | 40.41200 | -81.98799 | 7971 ft | 160 kts | 351° |
| 2026-04-17 15:28 | 40.42305 | -81.99000 | 7969 ft | 160 kts | 351° |
| 2026-04-17 15:28 | 40.43398 | -81.99198 | 7979 ft | 161 kts | 351° |
| 2026-04-17 15:28 | 40.44515 | -81.99401 | 7972 ft | 162 kts | 351° |
| 2026-04-17 15:28 | 40.45648 | -81.99606 | 7971 ft | 162 kts | 351° |
| 2026-04-17 15:29 | 40.46748 | -81.99806 | 7967 ft | 161 kts | 351° |
| 2026-04-17 15:29 | 40.47872 | -82.00010 | 7970 ft | 161 kts | 351° |
| 2026-04-17 15:29 | 40.48968 | -82.00209 | 7968 ft | 161 kts | 351° |
| 2026-04-17 15:29 | 40.50091 | -82.00412 | 7970 ft | 161 kts | 351° |
| 2026-04-17 15:30 | 40.51192 | -82.00611 | 7973 ft | 163 kts | 351° |
| 2026-04-17 15:30 | 40.52310 | -82.00815 | 7970 ft | 162 kts | 351° |
| 2026-04-17 15:30 | 40.53424 | -82.01018 | 7969 ft | 161 kts | 350° |
| 2026-04-17 15:30 | 40.54507 | -82.01362 | 7968 ft | 160 kts | 335° |
| 2026-04-17 15:31 | 40.55424 | -82.02179 | 7969 ft | 161 kts | 316° |
| 2026-04-17 15:31 | 40.56142 | -82.03310 | 7979 ft | 162 kts | 310° |
| 2026-04-17 15:31 | 40.56859 | -82.04463 | 7965 ft | 163 kts | 311° |
| 2026-04-17 15:31 | 40.57578 | -82.05612 | 7977 ft | 163 kts | 311° |
| 2026-04-17 15:32 | 40.58296 | -82.06767 | 7969 ft | 162 kts | 310° |
| 2026-04-17 15:32 | 40.59012 | -82.07920 | 7969 ft | 162 kts | 311° |
| 2026-04-17 15:32 | 40.59725 | -82.09065 | 7970 ft | 162 kts | 311° |
| 2026-04-17 15:32 | 40.60438 | -82.10212 | 7968 ft | 162 kts | 310° |
| 2026-04-17 15:33 | 40.61153 | -82.11364 | 7968 ft | 162 kts | 310° |
| 2026-04-17 15:33 | 40.61873 | -82.12522 | 7973 ft | 164 kts | 310° |
| 2026-04-17 15:33 | 40.62594 | -82.13684 | 7965 ft | 164 kts | 310° |
| 2026-04-17 15:33 | 40.63310 | -82.14840 | 7973 ft | 163 kts | 310° |
| 2026-04-17 15:34 | 40.64020 | -82.15982 | 7964 ft | 163 kts | 310° |
| 2026-04-17 15:34 | 40.64736 | -82.17137 | 7971 ft | 164 kts | 310° |
| 2026-04-17 15:34 | 40.65465 | -82.18314 | 7968 ft | 164 kts | 311° |
| 2026-04-17 15:34 | 40.66175 | -82.19461 | 7969 ft | 164 kts | 311° |
| 2026-04-17 15:35 | 40.66896 | -82.20624 | 7965 ft | 164 kts | 311° |
| 2026-04-17 15:35 | 40.67615 | -82.21785 | 7971 ft | 164 kts | 310° |
| 2026-04-17 15:35 | 40.68340 | -82.22956 | 7966 ft | 165 kts | 311° |
| 2026-04-17 15:35 | 40.69066 | -82.24130 | 7973 ft | 165 kts | 310° |
| 2026-04-17 15:36 | 40.69792 | -82.25303 | 7974 ft | 166 kts | 310° |
| 2026-04-17 15:36 | 40.70525 | -82.26489 | 7969 ft | 167 kts | 310° |
| 2026-04-17 15:36 | 40.71261 | -82.27682 | 7969 ft | 167 kts | 311° |
| 2026-04-17 15:36 | 40.71997 | -82.28871 | 7967 ft | 167 kts | 310° |
| 2026-04-17 15:37 | 40.72729 | -82.30057 | 7971 ft | 166 kts | 310° |
| 2026-04-17 15:37 | 40.73454 | -82.31233 | 7967 ft | 165 kts | 310° |
| 2026-04-17 15:37 | 40.74179 | -82.32408 | 7942 ft | 166 kts | 310° |
| 2026-04-17 15:37 | 40.74934 | -82.33628 | 7732 ft | 177 kts | 310° |
| 2026-04-17 15:38 | 40.75714 | -82.34892 | 7493 ft | 173 kts | 310° |
| 2026-04-17 15:38 | 40.76446 | -82.36087 | 7272 ft | 162 kts | 310° |
| 2026-04-17 15:38 | 40.77135 | -82.37207 | 7051 ft | 156 kts | 310° |
| 2026-04-17 15:38 | 40.77805 | -82.38295 | 6844 ft | 151 kts | 310° |
| 2026-04-17 15:39 | 40.78474 | -82.39380 | 6644 ft | 153 kts | 310° |
| 2026-04-17 15:39 | 40.79148 | -82.40475 | 6437 ft | 154 kts | 310° |
| 2026-04-17 15:39 | 40.79826 | -82.41576 | 6226 ft | 154 kts | 310° |
| 2026-04-17 15:39 | 40.80503 | -82.42676 | 6022 ft | 154 kts | 310° |
| 2026-04-17 15:40 | 40.81180 | -82.43778 | 5820 ft | 155 kts | 310° |
| 2026-04-17 15:40 | 40.81859 | -82.44883 | 5616 ft | 154 kts | 310° |
| 2026-04-17 15:40 | 40.82537 | -82.45986 | 5402 ft | 154 kts | 310° |
| 2026-04-17 15:40 | 40.83208 | -82.47080 | 5207 ft | 154 kts | 309° |
| 2026-04-17 15:41 | 40.83884 | -82.48181 | 5001 ft | 154 kts | 309° |
| 2026-04-17 15:41 | 40.84558 | -82.49279 | 4797 ft | 154 kts | 309° |
| 2026-04-17 15:41 | 40.85230 | -82.50376 | 4640 ft | 153 kts | 309° |
| 2026-04-17 15:41 | 40.85900 | -82.51468 | 4436 ft | 153 kts | 309° |
| 2026-04-17 15:42 | 40.86569 | -82.52560 | 4234 ft | 153 kts | 309° |
| 2026-04-17 15:42 | 40.87240 | -82.53655 | 4029 ft | 153 kts | 309° |
| 2026-04-17 15:42 | 40.87912 | -82.54751 | 3828 ft | 153 kts | 309° |
| 2026-04-17 15:42 | 40.88583 | -82.55848 | 3622 ft | 153 kts | 309° |
| 2026-04-17 15:43 | 40.89254 | -82.56943 | 3420 ft | 153 kts | 309° |
| 2026-04-17 15:43 | 40.89916 | -82.58045 | 3213 ft | 153 kts | 304° |
| 2026-04-17 15:43 | 40.90127 | -82.59372 | 2981 ft | 150 kts | 259° |
| 2026-04-17 15:43 | 40.89552 | -82.60384 | 2810 ft | 132 kts | 206° |
| 2026-04-17 15:44 | 40.88760 | -82.60312 | 2722 ft | 112 kts | 142° |
| 2026-04-17 15:44 | 40.88414 | -82.59460 | 2652 ft | 108 kts | 104° |
| 2026-04-17 15:44 | 40.87955 | -82.58637 | 2533 ft | 117 kts | 136° |
| 2026-04-17 15:44 | 40.87356 | -82.57857 | 2372 ft | 124 kts | 136° |
| 2026-04-17 15:45 | 40.86728 | -82.57062 | 2208 ft | 127 kts | 136° |
| 2026-04-17 15:45 | 40.86080 | -82.56255 | 2030 ft | 128 kts | 136° |
| 2026-04-17 15:45 | 40.85429 | -82.55450 | 1861 ft | 128 kts | 135° |
| 2026-04-17 15:45 | 40.84778 | -82.54645 | 1682 ft | 126 kts | 135° |
| 2026-04-17 15:46 | 40.84133 | -82.53854 | 1501 ft | 127 kts | 135° |
| 2026-04-17 15:46 | 40.83500 | -82.53068 | 1359 ft | 121 kts | 134° |
| 2026-04-17 15:46 | 40.82960 | -82.52405 | 1284 ft | 87 kts | 134° |
| 2026-04-17 15:46 | 40.82720 | -82.52098 | 1289 ft | 31 kts | 139° |
| 2026-04-17 15:47 | 40.82620 | -82.52004 | 1291 ft | 9 kts | 186° |
| 2026-04-17 15:47 | 40.82567 | -82.52044 | 1290 ft | 9 kts | 185° |
| 2026-04-17 15:47 | 40.82505 | -82.52011 | 1291 ft | 12 kts | 150° |
| 2026-04-17 15:47 | 40.82405 | -82.51930 | 1293 ft | 20 kts | 149° |
| 2026-04-17 15:48 | 40.82278 | -82.51833 | 1296 ft | 21 kts | 150° |
| 2026-04-17 15:48 | 40.82159 | -82.51743 | 1298 ft | 19 kts | 150° |
| 2026-04-17 15:48 | 40.82041 | -82.51652 | 1300 ft | 20 kts | 149° |
| 2026-04-17 15:48 | 40.81922 | -82.51561 | 1299 ft | 20 kts | 150° |
| 2026-04-17 15:49 | 40.81797 | -82.51466 | 1297 ft | 21 kts | 150° |
| 2026-04-17 15:49 | 40.81687 | -82.51378 | 1300 ft | 12 kts | 139° |
| 2026-04-17 15:49 | 40.81658 | -82.51315 | 1302 ft | 10 kts | 149° |
| 2026-04-17 15:49 | 40.81622 | -82.51280 | 1303 ft | 0 kts | 109° |